Time;durP1;ratioP1;P1;durP2;ratioP2;P2;SDS_P1;SDS_P2;PMS_P1;PMS_P2;Temp;Humidity;BMP_temperature;BMP_pressure;BME280_temperature;BME280_humidity;BME280_pressure;Samples;Min_cycle;Max_cycle;Signal;HPM_P1;HPM_P2
2023/07/25 00:00:48;;;;;;;2.78;0.20;;;;;;;19.28;54.10;99262.72;10501681;28;20064;-71
2023/07/25 00:05:49;;;;;;;0.40;0.20;;;;;;;19.32;54.19;99266.56;10500493;28;20108;-71
2023/07/25 00:10:51;;;;;;;2.28;0.25;;;;;;;19.15;54.62;99264.78;10501626;28;20036;-72
2023/07/25 00:15:53;;;;;;;1.58;0.30;;;;;;;19.19;54.58;99265.09;10501049;28;20040;-72
2023/07/25 00:20:55;;;;;;;1.25;0.30;;;;;;;19.19;54.61;99257.75;10504642;28;20044;-71
2023/07/25 00:25:57;;;;;;;0.55;0.30;;;;;;;19.15;54.76;99247.63;10498243;28;20285;-71
2023/07/25 00:31:05;;;;;;;0.60;0.20;;;;;;;19.19;55.13;99255.03;10497699;28;20078;-71
2023/07/25 00:36:06;;;;;;;0.95;0.30;;;;;;;19.11;55.28;99246.50;10504161;28;20048;-71
2023/07/25 00:41:08;;;;;;;0.50;0.20;;;;;;;19.12;55.43;99231.81;10499707;28;20212;-71
2023/07/25 00:46:09;;;;;;;0.40;0.30;;;;;;;19.15;55.52;99232.09;10497861;28;20258;-70
2023/07/25 00:51:11;;;;;;;2.00;0.40;;;;;;;19.13;55.48;99231.53;10500505;28;20048;-71
2023/07/25 00:56:12;;;;;;;0.73;0.20;;;;;;;19.20;55.63;99240.31;10505550;28;20044;-71
2023/07/25 01:01:14;;;;;;;0.63;0.35;;;;;;;19.15;55.87;99244.88;10501342;28;20111;-72
2023/07/25 01:06:17;;;;;;;1.13;0.30;;;;;;;19.10;56.19;99237.50;10499914;28;20072;-70
2023/07/25 01:11:19;;;;;;;0.55;0.30;;;;;;;19.27;56.04;99236.53;10504473;28;20120;-71
2023/07/25 01:16:24;;;;;;;0.70;0.30;;;;;;;19.35;56.13;99238.78;10500681;28;20056;-71
2023/07/25 01:21:26;;;;;;;0.85;0.32;;;;;;;19.39;56.33;99242.63;10499948;28;20056;-70
2023/07/25 01:26:28;;;;;;;0.63;0.30;;;;;;;19.49;56.43;99225.53;10496880;28;20071;-71
2023/07/25 01:31:29;;;;;;;1.77;0.30;;;;;;;19.52;56.55;99208.66;10503137;28;20076;-71
2023/07/25 01:36:31;;;;;;;1.40;0.47;;;;;;;19.61;56.40;99201.63;10499866;28;20080;-71
2023/07/25 01:41:32;;;;;;;2.33;0.30;;;;;;;19.71;56.47;99204.44;10497179;28;20052;-71
2023/07/25 01:46:34;;;;;;;2.65;0.95;;;;;;;19.76;56.40;99206.38;10502600;28;20055;-71
2023/07/25 01:51:36;;;;;;;1.75;0.60;;;;;;;19.80;56.44;99202.81;10509649;28;20062;-70
2023/07/25 01:56:39;;;;;;;0.68;0.50;;;;;;;19.84;56.49;99205.84;10506203;28;20037;-71
2023/07/25 02:01:41;;;;;;;3.92;0.60;;;;;;;19.93;56.40;99208.91;10504332;28;20107;-71
2023/07/25 02:06:42;;;;;;;0.90;0.57;;;;;;;20.00;56.29;99209.47;10508668;28;20044;-71
2023/07/25 02:11:44;;;;;;;1.85;0.40;;;;;;;20.01;56.29;99214.66;10504862;28;20505;-71
2023/07/25 02:16:45;;;;;;;1.98;0.43;;;;;;;20.05;56.72;99212.22;10499301;28;20041;-70
2023/07/25 02:21:47;;;;;;;1.42;0.50;;;;;;;20.04;56.65;99209.75;10505312;28;20048;-71
2023/07/25 02:26:48;;;;;;;2.28;0.75;;;;;;;19.95;56.90;99215.72;10508052;28;20099;-71
2023/07/25 02:31:50;;;;;;;2.35;1.08;;;;;;;19.78;57.66;99215.09;10506261;28;20064;-71
2023/07/25 02:36:51;;;;;;;3.72;1.30;;;;;;;19.60;58.54;99217.13;10505770;28;20049;-72
2023/07/25 02:41:52;;;;;;;1.25;0.73;;;;;;;19.43;59.07;99211.03;10506477;28;20068;-71
2023/07/25 02:46:54;;;;;;;2.55;1.35;;;;;;;19.16;60.16;99214.66;10501888;28;20040;-72
2023/07/25 02:51:55;;;;;;;1.70;1.00;;;;;;;19.15;60.75;99217.66;10501052;28;20040;-72
2023/07/25 02:56:57;;;;;;;1.83;1.10;;;;;;;19.02;61.12;99219.72;10502762;28;20317;-71
2023/07/25 03:01:58;;;;;;;4.38;1.00;;;;;;;18.98;61.61;99204.19;10503927;28;20358;-71
2023/07/25 03:07:00;;;;;;;3.25;1.38;;;;;;;18.82;62.06;99186.88;10501251;28;20044;-71
2023/07/25 03:12:01;;;;;;;3.83;1.35;;;;;;;18.80;62.34;99183.59;10502530;28;20078;-71
2023/07/25 03:17:03;;;;;;;4.28;2.05;;;;;;;18.88;62.34;99188.56;10505669;28;20083;-71
2023/07/25 03:22:04;;;;;;;3.83;1.58;;;;;;;18.96;62.27;99171.75;10501847;28;20051;-71
2023/07/25 03:27:06;;;;;;;2.47;1.92;;;;;;;18.94;62.49;99178.53;10502369;28;21103;-72
2023/07/25 03:32:10;;;;;;;3.40;2.00;;;;;;;18.92;62.68;99167.09;10502450;28;20052;-72
2023/07/25 03:37:11;;;;;;;2.97;2.08;;;;;;;18.82;63.15;99171.38;10505203;28;20075;-72
2023/07/25 03:42:12;;;;;;;3.60;1.45;;;;;;;18.70;63.75;99161.69;10500193;28;20044;-69
2023/07/25 03:47:14;;;;;;;3.03;2.15;;;;;;;18.68;64.06;99164.69;10501079;28;20113;-69
2023/07/25 03:52:15;;;;;;;3.42;1.80;;;;;;;18.60;64.59;99162.41;10505344;28;20252;-70
2023/07/25 03:57:17;;;;;;;3.95;2.40;;;;;;;18.34;65.76;99153.19;10501535;28;20056;-71
2023/07/25 04:02:18;;;;;;;5.13;2.05;;;;;;;18.22;66.54;99143.25;10499759;28;20052;-70
2023/07/25 04:07:20;;;;;;;5.95;2.40;;;;;;;18.23;67.29;99134.03;10500861;28;20048;-69
2023/07/25 04:12:21;;;;;;;4.57;2.88;;;;;;;18.20;67.90;99136.44;10504830;28;20052;-70
2023/07/25 04:17:23;;;;;;;5.22;3.17;;;;;;;18.29;68.35;99134.09;10498317;28;20048;-70
2023/07/25 04:22:24;;;;;;;6.43;2.92;;;;;;;18.25;68.73;99125.63;10501399;28;20049;-70
2023/07/25 04:27:28;;;;;;;7.30;3.83;;;;;;;18.21;69.20;99125.31;10504563;28;20140;-70
2023/07/25 04:32:30;;;;;;;5.82;3.53;;;;;;;18.16;69.68;99121.72;10500026;28;20352;-70
2023/07/25 04:37:31;;;;;;;9.30;3.92;;;;;;;18.21;69.72;99114.44;10500891;28;20114;-69
2023/07/25 04:42:33;;;;;;;9.85;4.47;;;;;;;18.26;69.91;99123.72;10502909;28;20060;-69
2023/07/25 04:47:34;;;;;;;9.55;4.75;;;;;;;18.32;70.19;99125.41;10503401;28;20407;-70
2023/07/25 04:52:35;;;;;;;7.28;4.60;;;;;;;18.38;70.24;99136.09;10501051;28;20048;-70
2023/07/25 04:57:37;;;;;;;10.18;5.38;;;;;;;18.41;70.47;99146.47;10500097;28;20112;-70
2023/07/25 05:02:41;;;;;;;8.70;4.60;;;;;;;18.45;70.74;99151.41;10499436;28;20346;-70
2023/07/25 05:07:42;;;;;;;8.05;5.07;;;;;;;18.49;70.54;99152.53;10500558;28;20094;-70
2023/07/25 05:12:44;;;;;;;11.63;5.03;;;;;;;18.54;70.55;99158.84;10499732;28;20040;-70
2023/07/25 05:17:45;;;;;;;14.25;5.90;;;;;;;18.52;70.51;99162.88;10505023;28;20044;-69
2023/07/25 05:22:47;;;;;;;13.70;6.45;;;;;;;18.39;71.48;99170.38;10508184;28;20045;-69
2023/07/25 05:27:48;;;;;;;12.77;5.40;;;;;;;18.45;71.52;99173.16;10506596;28;20116;-67
2023/07/25 05:32:49;;;;;;;13.75;6.75;;;;;;;18.47;71.69;99182.72;10506507;28;20462;-69
2023/07/25 05:37:51;;;;;;;10.18;6.30;;;;;;;18.50;72.07;99178.66;10517764;28;20101;-69
2023/07/25 05:42:53;;;;;;;12.00;6.63;;;;;;;18.48;72.04;99184.34;10502202;28;20056;-69
2023/07/25 05:47:54;;;;;;;10.70;6.72;;;;;;;18.45;72.29;99173.16;10505888;28;20048;-69
2023/07/25 05:52:55;;;;;;;13.75;6.82;;;;;;;18.42;72.28;99160.88;10506493;28;20296;-69
2023/07/25 05:57:57;;;;;;;12.88;6.22;;;;;;;18.46;72.28;99164.72;10509969;28;20312;-69
2023/07/25 06:02:58;;;;;;;9.98;5.68;;;;;;;18.43;72.38;99170.69;10505811;28;20169;-69
2023/07/25 06:08:00;;;;;;;9.90;6.07;;;;;;;18.49;72.35;99174.28;10506042;28;20044;-69
2023/07/25 06:13:04;;;;;;;10.80;5.82;;;;;;;18.48;72.60;99180.81;10509109;28;20067;-69
2023/07/25 06:18:06;;;;;;;8.98;5.65;;;;;;;18.50;72.43;99181.38;10504070;28;20067;-69
2023/07/25 06:23:07;;;;;;;11.48;6.85;;;;;;;18.59;72.58;99167.03;10504042;28;20062;-69
2023/07/25 06:28:10;;;;;;;12.77;7.22;;;;;;;18.70;72.55;99164.41;10505670;28;20103;-69
2023/07/25 06:33:14;;;;;;;12.25;7.28;;;;;;;18.69;72.54;99160.06;10511982;28;20056;-70
2023/07/25 06:38:15;;;;;;;11.70;6.90;;;;;;;18.67;72.66;99156.78;10503700;28;20058;-69
2023/07/25 06:43:16;;;;;;;27.60;11.73;;;;;;;18.61;72.88;99140.38;10504950;28;20055;-68
2023/07/25 06:48:18;;;;;;;11.23;6.78;;;;;;;18.54;73.36;99141.66;10506743;28;20070;-69
2023/07/25 06:53:19;;;;;;;12.20;6.75;;;;;;;18.54;73.30;99144.38;10504051;28;20070;-68
2023/07/25 06:58:21;;;;;;;13.43;6.22;;;;;;;18.41;73.82;99135.56;10504379;28;20341;-68
2023/07/25 07:03:22;;;;;;;10.30;5.95;;;;;;;18.40;74.18;99133.94;10503114;28;20449;-68
2023/07/25 07:08:24;;;;;;;7.47;5.28;;;;;;;18.53;73.85;99131.88;10507982;28;20459;-68
2023/07/25 07:13:25;;;;;;;7.38;4.45;;;;;;;18.59;74.01;99128.94;10504576;28;20084;-69
2023/07/25 07:18:27;;;;;;;7.50;4.43;;;;;;;18.69;73.88;99130.91;10503782;28;20123;-69
2023/07/25 07:23:28;;;;;;;9.43;5.13;;;;;;;18.81;73.69;99117.97;10510950;28;20054;-68
2023/07/25 07:28:29;;;;;;;8.75;5.25;;;;;;;18.78;73.71;99121.22;10504318;28;20065;-72
2023/07/25 07:33:33;;;;;;;7.10;4.50;;;;;;;18.72;73.78;99114.09;10503036;28;20413;-68
2023/07/25 07:38:35;;;;;;;12.73;5.13;;;;;;;18.80;73.61;99120.97;10503138;28;20120;-68
2023/07/25 07:43:36;;;;;;;7.65;5.75;;;;;;;18.58;73.58;99140.06;10506583;28;20068;-69
2023/07/25 07:48:40;;;;;;;9.50;5.25;;;;;;;18.39;73.50;99140.44;10502983;28;20093;-70
2023/07/25 07:53:42;;;;;;;11.07;5.40;;;;;;;17.97;74.70;99143.81;10499680;28;20045;-71
2023/07/25 07:58:43;;;;;;;11.73;5.57;;;;;;;17.84;75.03;99146.94;10506821;28;20045;-70
2023/07/25 08:03:45;;;;;;;12.82;6.30;;;;;;;17.72;75.39;99171.47;10501429;28;20040;-71
2023/07/25 08:08:47;;;;;;;9.00;5.25;;;;;;;17.42;75.72;99171.91;10498605;28;20064;-70
2023/07/25 08:13:48;;;;;;;14.95;7.00;;;;;;;17.37;75.92;99141.94;10499392;28;20051;-71
2023/07/25 08:18:50;;;;;;;8.80;4.28;;;;;;;17.01;77.04;99144.13;10501912;28;20044;-70
2023/07/25 08:23:54;;;;;;;9.57;4.22;;;;;;;16.83;77.25;99154.16;10510440;28;20056;-69
2023/07/25 08:28:55;;;;;;;8.68;4.93;;;;;;;16.84;77.62;99149.56;10504590;28;20044;-70
2023/07/25 08:33:57;;;;;;;11.23;4.55;;;;;;;16.78;77.34;99156.75;10504510;28;20112;-70
2023/07/25 08:38:58;;;;;;;11.35;5.38;;;;;;;16.91;77.65;99138.56;10501005;28;20044;-69
2023/07/25 08:44:01;;;;;;;7.68;4.22;;;;;;;17.00;77.75;99132.47;10496169;28;20044;-69
2023/07/25 08:49:03;;;;;;;5.55;3.05;;;;;;;17.04;77.49;99130.03;10498711;28;20060;-69
2023/07/25 08:54:19;;;;;;;7.88;3.85;;;;;;;16.96;78.22;99133.19;10501826;28;20044;-70
2023/07/25 08:59:23;;;;;;;7.57;3.58;;;;;;;16.99;78.07;99135.41;10498280;28;20419;-71
2023/07/25 09:04:26;;;;;;;7.60;3.65;;;;;;;16.99;78.24;99152.50;10501784;28;20047;-70
2023/07/25 09:09:27;;;;;;;5.93;3.75;;;;;;;17.00;78.20;99164.19;10501965;28;20072;-70
2023/07/25 09:14:29;;;;;;;9.05;3.97;;;;;;;16.90;78.85;99164.84;10499805;28;20052;-70
2023/07/25 09:19:31;;;;;;;5.80;3.75;;;;;;;17.06;78.60;99168.63;10501505;28;20044;-70
2023/07/25 09:24:39;;;;;;;6.43;3.75;;;;;;;17.07;78.84;99166.75;10503032;28;20056;-69
2023/07/25 09:29:41;;;;;;;4.50;3.17;;;;;;;17.26;78.49;99160.00;10494400;28;20045;-69
2023/07/25 09:34:44;;;;;;;6.25;3.30;;;;;;;17.29;79.29;99145.09;10500114;28;20100;-69
2023/07/25 09:39:45;;;;;;;6.15;3.72;;;;;;;17.51;79.24;99126.91;10498519;28;20288;-70
2023/07/25 09:44:48;;;;;;;4.55;3.50;;;;;;;17.43;79.73;99130.06;10499444;28;20079;-71
2023/07/25 09:49:51;;;;;;;4.55;3.20;;;;;;;17.44;79.73;99129.00;10502619;28;20107;-70
2023/07/25 09:54:52;;;;;;;3.78;2.10;;;;;;;17.47;79.45;99136.63;10499360;28;20363;-71
2023/07/25 09:59:55;;;;;;;5.43;2.30;;;;;;;17.41;79.87;99132.22;10498317;28;20280;-70
2023/07/25 10:04:58;;;;;;;4.63;1.75;;;;;;;17.41;79.47;99126.78;10510563;28;20128;-70
2023/07/25 10:10:00;;;;;;;2.75;1.88;;;;;;;17.35;79.73;99127.78;10503670;28;20045;-70
2023/07/25 10:15:02;;;;;;;4.50;1.60;;;;;;;17.24;80.30;99143.13;10502772;28;20066;-70
2023/07/25 10:20:07;;;;;;;2.67;1.38;;;;;;;17.30;79.86;99142.13;10504425;28;20048;-70
2023/07/25 10:25:27;;;;;;;7.60;3.30;;;;;;;17.33;79.27;99157.09;10510776;28;20111;-70
2023/07/25 10:30:31;;;;;;;2.42;1.83;;;;;;;17.30;79.61;99163.00;10496579;28;20045;-70
2023/07/25 10:35:39;;;;;;;4.05;1.52;;;;;;;17.52;78.81;99154.91;10506294;28;20040;-71
2023/07/25 10:40:55;;;;;;;3.08;1.80;;;;;;;17.67;78.70;99160.53;10505249;28;20044;-68
2023/07/25 10:46:00;;;;;;;4.00;1.00;;;;;;;17.90;78.16;99175.81;10508241;28;20053;-70
2023/07/25 10:51:07;;;;;;;1.25;1.00;;;;;;;18.30;77.38;99160.22;10504244;28;20242;-70
2023/07/25 10:56:09;;;;;;;2.65;1.13;;;;;;;18.68;76.27;99172.00;10503942;28;20341;-69
2023/07/25 11:01:43;;;;;;;1.98;1.00;;;;;;;18.83;75.28;99174.91;10513469;28;20036;-69
2023/07/25 11:06:45;;;;;;;1.13;1.00;;;;;;;19.22;73.73;99182.84;10506461;28;20056;-72
2023/07/25 11:11:49;;;;;;;2.22;0.40;;;;;;;19.31;72.54;99194.91;10504972;28;20086;-71
2023/07/25 11:16:52;;;;;;;3.42;0.50;;;;;;;19.54;71.73;99195.56;10500113;28;20128;-72
2023/07/25 11:21:54;;;;;;;1.38;0.30;;;;;;;19.73;71.15;99202.25;10508358;28;20060;-72
2023/07/25 11:27:02;;;;;;;0.70;0.40;;;;;;;20.06;69.83;99208.41;10503377;28;20100;-71
2023/07/25 11:32:03;;;;;;;1.70;0.40;;;;;;;20.03;68.90;99210.88;10495838;28;20052;-70
2023/07/25 11:37:10;;;;;;;0.40;0.30;;;;;;;20.21;67.84;99210.38;10504152;28;20271;-70
2023/07/25 11:42:12;;;;;;;2.40;0.40;;;;;;;20.61;66.76;99219.78;10504539;28;20044;-70
2023/07/25 11:47:14;;;;;;;0.95;0.30;;;;;;;20.50;65.52;99232.59;10498989;28;20360;-70
2023/07/25 11:52:16;;;;;;;1.48;0.52;;;;;;;20.46;65.29;99228.75;10502453;28;20068;-72
2023/07/25 11:57:18;;;;;;;2.95;0.30;;;;;;;20.43;64.39;99232.00;10505043;28;20115;-71
2023/07/25 12:02:20;;;;;;;2.10;0.50;;;;;;;20.71;64.42;99247.13;10510220;28;20341;-71
2023/07/25 12:07:21;;;;;;;0.63;0.50;;;;;;;20.95;63.49;99246.59;10502085;28;20060;-70
2023/07/25 12:12:23;;;;;;;0.47;0.30;;;;;;;21.32;62.41;99248.25;10501178;28;20040;-71
2023/07/25 12:17:43;;;;;;;1.30;0.40;;;;;;;21.61;61.49;99245.00;10512758;28;20036;-71
2023/07/25 12:22:46;;;;;;;0.88;0.40;;;;;;;22.48;60.53;99244.72;10501480;28;20116;-74
2023/07/25 12:27:48;;;;;;;0.80;0.50;;;;;;;22.37;59.90;99261.22;10499870;28;20051;-71
2023/07/25 12:32:51;;;;;;;0.90;0.40;;;;;;;22.23;60.09;99257.38;10504652;28;20048;-71
2023/07/25 12:37:53;;;;;;;2.38;0.50;;;;;;;22.25;60.24;99262.63;10500732;28;20041;-71
2023/07/25 12:42:54;;;;;;;1.00;0.43;;;;;;;22.31;59.73;99258.75;10499860;28;20103;-71
2023/07/25 12:47:56;;;;;;;1.27;0.60;;;;;;;22.19;59.60;99259.03;10498673;28;20037;-71
2023/07/25 12:52:57;;;;;;;1.45;0.52;;;;;;;22.29;59.49;99269.97;10504780;28;20067;-71
2023/07/25 12:57:59;;;;;;;2.92;0.47;;;;;;;22.37;58.89;99263.94;10501666;28;20089;-71
2023/07/25 13:03:00;;;;;;;0.98;0.50;;;;;;;22.28;59.13;99253.84;10506148;28;20121;-70
2023/07/25 13:08:02;;;;;;;1.10;0.47;;;;;;;22.08;58.96;99262.94;10504789;28;20108;-71
2023/07/25 13:13:03;;;;;;;3.63;0.63;;;;;;;21.66;60.86;99273.13;10499814;28;20052;-70
2023/07/25 13:18:05;;;;;;;3.13;1.08;;;;;;;20.41;63.90;99289.59;10500026;28;20079;-71
2023/07/25 13:23:09;;;;;;;3.65;1.17;;;;;;;19.41;66.80;99289.50;10499914;28;20056;-70
2023/07/25 13:28:11;;;;;;;3.10;1.38;;;;;;;19.03;68.39;99294.91;10503040;28;20071;-70
2023/07/25 13:33:13;;;;;;;1.60;0.80;;;;;;;19.15;68.38;99286.56;10498646;28;20060;-70
2023/07/25 13:38:14;;;;;;;1.77;0.85;;;;;;;19.22;68.81;99284.47;10503596;28;20051;-69
2023/07/25 13:43:16;;;;;;;1.95;1.10;;;;;;;19.42;68.87;99286.53;10515504;28;20048;-69
2023/07/25 13:48:17;;;;;;;1.85;1.10;;;;;;;19.70;68.64;99281.00;10508279;28;20391;-70
2023/07/25 13:53:19;;;;;;;1.00;0.70;;;;;;;19.77;68.20;99279.72;10506646;28;20392;-70
2023/07/25 13:58:20;;;;;;;2.17;0.93;;;;;;;19.94;68.04;99287.72;10510823;28;20064;-70
2023/07/25 14:03:25;;;;;;;1.98;1.02;;;;;;;20.25;67.23;99290.63;10514021;28;20101;-69
2023/07/25 14:08:30;;;;;;;2.55;1.00;;;;;;;20.21;66.28;99287.59;10509251;28;20048;-70
2023/07/25 14:13:32;;;;;;;2.97;1.17;;;;;;;20.06;65.93;99286.72;10506547;28;20116;-68
2023/07/25 14:18:33;;;;;;;4.25;0.80;;;;;;;20.22;65.93;99285.69;10506634;28;20068;-68
2023/07/25 14:23:34;;;;;;;1.77;0.73;;;;;;;20.65;65.06;99285.63;10509755;28;20364;-70
2023/07/25 14:28:36;;;;;;;2.22;1.02;;;;;;;21.52;63.11;99283.00;10506936;28;20260;-70
2023/07/25 14:33:37;;;;;;;1.75;0.70;;;;;;;22.06;62.84;99287.00;10502757;28;20097;-71
2023/07/25 14:38:40;;;;;;;4.32;1.30;;;;;;;22.34;61.16;99293.81;10508175;28;20389;-71
2023/07/25 14:43:41;;;;;;;2.92;1.10;;;;;;;22.38;60.04;99303.91;10511636;28;20063;-70
2023/07/25 14:48:43;;;;;;;2.63;0.60;;;;;;;22.48;60.12;99294.84;10504785;28;20112;-71
2023/07/25 14:53:44;;;;;;;4.75;0.60;;;;;;;22.76;59.43;99298.78;10503342;28;20108;-71
2023/07/25 14:58:45;;;;;;;1.95;0.75;;;;;;;22.71;58.10;99300.72;10507844;28;20075;-72
2023/07/25 15:03:47;;;;;;;4.10;0.80;;;;;;;22.45;58.08;99297.31;10506112;28;20052;-72
2023/07/25 15:08:48;;;;;;;0.85;0.50;;;;;;;22.32;57.79;99296.00;10505281;28;20107;-71
2023/07/25 15:13:50;;;;;;;3.47;0.52;;;;;;;22.29;56.83;99299.28;10508383;28;20364;-72
2023/07/25 15:18:54;;;;;;;2.05;0.70;;;;;;;22.37;56.69;99302.28;10503207;28;20051;-70
2023/07/25 15:23:55;;;;;;;2.67;0.80;;;;;;;22.51;55.75;99304.41;10504048;28;20143;-69
2023/07/25 15:28:57;;;;;;;1.58;0.40;;;;;;;22.71;55.71;99304.31;10499631;28;20123;-69
2023/07/25 15:34:01;;;;;;;0.85;0.40;;;;;;;22.74;54.80;99319.38;10507067;28;20049;-71
2023/07/25 15:39:02;;;;;;;0.75;0.40;;;;;;;22.75;54.51;99312.78;10501838;28;20064;-71
2023/07/25 15:44:04;;;;;;;0.85;0.40;;;;;;;22.83;53.74;99317.69;10505900;28;20505;-71
2023/07/25 15:49:05;;;;;;;2.35;0.60;;;;;;;23.06;53.90;99310.69;10510578;28;20116;-71
2023/07/25 15:54:07;;;;;;;3.55;0.50;;;;;;;23.09;53.25;99325.78;10508680;28;20237;-72
2023/07/25 15:59:12;;;;;;;1.85;0.50;;;;;;;23.03;53.47;99324.19;10503159;28;20056;-72
2023/07/25 16:04:13;;;;;;;2.30;0.45;;;;;;;23.00;53.65;99322.78;10501907;28;20064;-72
2023/07/25 16:09:15;;;;;;;3.45;0.50;;;;;;;22.82;53.16;99332.47;10506800;28;20040;-73
2023/07/25 16:14:16;;;;;;;1.48;0.38;;;;;;;22.35;53.94;99333.75;10501976;28;20375;-73
2023/07/25 16:19:17;;;;;;;1.30;0.40;;;;;;;22.14;54.37;99333.81;10503164;28;20052;-72
2023/07/25 16:24:19;;;;;;;0.52;0.50;;;;;;;22.05;54.17;99335.47;10506716;28;20060;-73
2023/07/25 16:29:20;;;;;;;4.07;0.52;;;;;;;21.84;54.30;99350.25;10502676;28;20060;-73
2023/07/25 16:34:22;;;;;;;0.68;0.50;;;;;;;21.62;54.24;99356.03;10502410;28;20056;-71
2023/07/25 16:39:23;;;;;;;1.33;0.52;;;;;;;21.46;54.19;99355.19;10502003;28;20045;-71
2023/07/25 16:44:24;;;;;;;0.93;0.50;;;;;;;21.32;53.47;99361.16;10506744;28;20053;-71
2023/07/25 16:49:26;;;;;;;1.35;0.32;;;;;;;21.26;52.94;99369.63;10501151;28;20221;-73
2023/07/25 16:54:30;;;;;;;2.35;0.30;;;;;;;21.34;52.91;99377.31;10500720;28;20130;-70
2023/07/25 16:59:31;;;;;;;3.42;0.30;;;;;;;21.22;51.72;99379.47;10505786;28;20112;-70
2023/07/25 17:04:33;;;;;;;3.42;0.38;;;;;;;21.13;52.11;99387.38;10501289;28;20044;-69
2023/07/25 17:09:34;;;;;;;2.95;0.40;;;;;;;21.09;52.11;99389.00;10501898;28;20139;-69
2023/07/25 17:14:35;;;;;;;2.42;1.10;;;;;;;20.81;51.26;99391.09;10507466;28;20050;-69
2023/07/25 17:19:37;;;;;;;3.55;0.40;;;;;;;20.65;50.73;99409.31;10512894;28;20056;-69
2023/07/25 17:24:39;;;;;;;2.35;0.50;;;;;;;20.58;51.21;99411.47;10508005;28;20105;-70
2023/07/25 17:29:41;;;;;;;2.35;0.90;;;;;;;20.47;50.73;99417.94;10509040;28;20381;-68
2023/07/25 17:34:42;;;;;;;3.90;0.68;;;;;;;20.51;51.06;99428.06;10512805;28;20047;-71
2023/07/25 17:39:43;;;;;;;4.70;0.45;;;;;;;20.34;50.71;99439.16;10506678;28;20040;-69
2023/07/25 17:44:46;;;;;;;5.10;0.40;;;;;;;20.23;50.69;99442.91;10488901;28;20044;-69
2023/07/25 17:49:47;;;;;;;5.15;0.90;;;;;;;20.28;51.37;99445.69;10506070;28;20112;-70
2023/07/25 17:54:49;;;;;;;3.65;0.50;;;;;;;20.30;51.47;99448.97;10510738;28;20055;-69
2023/07/25 17:59:50;;;;;;;0.73;0.40;;;;;;;20.20;51.28;99468.81;10507076;28;20064;-69
2023/07/25 18:04:52;;;;;;;3.88;0.43;;;;;;;20.14;51.61;99466.28;10505859;28;20398;-70
2023/07/25 18:09:53;;;;;;;1.45;0.40;;;;;;;20.08;51.60;99464.63;10511222;28;20127;-69
2023/07/25 18:14:54;;;;;;;0.80;0.40;;;;;;;19.94;51.73;99469.69;10505478;28;20052;-69
2023/07/25 18:19:56;;;;;;;2.85;0.45;;;;;;;19.93;51.69;99474.31;10504202;28;20103;-69
2023/07/25 18:24:58;;;;;;;2.83;0.60;;;;;;;19.83;51.67;99481.56;10505778;28;20040;-70
2023/07/25 18:29:59;;;;;;;6.35;0.65;;;;;;;19.76;51.79;99492.69;10511195;28;20056;-69
2023/07/25 18:35:01;;;;;;;3.97;0.40;;;;;;;19.66;51.19;99504.28;10504563;28;20049;-69
2023/07/25 18:40:03;;;;;;;2.72;0.40;;;;;;;19.65;51.14;99516.28;10501627;28;20075;-70
2023/07/25 18:45:05;;;;;;;2.00;0.50;;;;;;;19.67;51.22;99524.19;10508621;28;20452;-69
2023/07/25 18:50:07;;;;;;;2.20;0.50;;;;;;;19.65;51.20;99535.38;10503711;28;20064;-70
2023/07/25 18:55:09;;;;;;;1.95;0.40;;;;;;;19.58;50.85;99537.47;10504352;28;20175;-68
2023/07/25 19:00:11;;;;;;;2.65;0.60;;;;;;;19.57;50.69;99544.84;10503918;28;20086;-67
2023/07/25 19:05:12;;;;;;;1.02;0.30;;;;;;;19.45;50.53;99544.16;10505647;28;20051;-69
2023/07/25 19:10:13;;;;;;;2.67;0.55;;;;;;;19.36;50.49;99560.13;10501684;28;20378;-69
2023/07/25 19:15:19;;;;;;;1.92;0.40;;;;;;;19.25;50.13;99573.88;10504726;28;20066;-69
2023/07/25 19:20:20;;;;;;;1.65;0.50;;;;;;;19.26;50.18;99573.63;10508298;28;20115;-68
2023/07/25 19:25:21;;;;;;;2.17;0.30;;;;;;;19.30;50.30;99584.84;10501442;28;20049;-71
2023/07/25 19:30:23;;;;;;;2.05;0.40;;;;;;;19.27;50.31;99593.50;10503531;28;20176;-70
2023/07/25 19:35:24;;;;;;;2.80;0.90;;;;;;;19.29;50.53;99594.06;10502529;28;20051;-70
2023/07/25 19:40:26;;;;;;;0.52;0.47;;;;;;;19.31;50.97;99594.66;10504920;28;20059;-72
2023/07/25 19:45:27;;;;;;;1.08;0.28;;;;;;;19.22;50.71;99602.44;10502282;28;20055;-70
2023/07/25 19:50:28;;;;;;;1.85;0.40;;;;;;;19.16;50.63;99596.09;10501523;28;20053;-71
2023/07/25 19:55:30;;;;;;;1.40;0.30;;;;;;;19.06;50.73;99609.59;10506135;28;20352;-71
2023/07/25 20:00:32;;;;;;;1.95;0.30;;;;;;;18.96;50.93;99607.53;10483332;28;20104;-71
2023/07/25 20:05:34;;;;;;;3.95;0.60;;;;;;;19.02;50.56;99611.16;10500826;28;20052;-70
2023/07/25 20:10:35;;;;;;;1.20;0.30;;;;;;;19.02;50.53;99613.88;10497879;28;20112;-70
2023/07/25 20:15:37;;;;;;;2.83;0.20;;;;;;;19.01;50.41;99618.47;10504627;28;20055;-71
2023/07/25 20:20:38;;;;;;;8.75;0.35;;;;;;;18.92;50.12;99638.25;10499414;28;20052;-72
2023/07/25 20:25:39;;;;;;;2.78;0.30;;;;;;;18.82;49.67;99639.72;10497069;28;20045;-71
2023/07/25 20:30:41;;;;;;;0.95;0.20;;;;;;;18.80;49.71;99650.03;10505463;28;20515;-72
2023/07/25 20:35:42;;;;;;;1.38;0.20;;;;;;;18.80;49.38;99651.94;10499433;28;20341;-72
2023/07/25 20:40:44;;;;;;;1.25;0.20;;;;;;;18.79;49.71;99670.16;10496978;28;20052;-72
2023/07/25 20:45:45;;;;;;;0.35;0.28;;;;;;;18.73;49.94;99673.03;10499544;28;20116;-71
2023/07/25 20:50:49;;;;;;;0.30;0.20;;;;;;;18.67;49.72;99679.47;10505196;28;20078;-72
2023/07/25 20:55:55;;;;;;;3.40;1.48;;;;;;;18.56;49.68;99681.16;10499159;28;20075;-70
2023/07/25 21:00:56;;;;;;;0.45;0.20;;;;;;;18.62;49.47;99691.91;10500662;28;20036;-71
2023/07/25 21:05:58;;;;;;;0.35;0.20;;;;;;;18.74;49.25;99700.03;10501686;28;20044;-71
2023/07/25 21:10:59;;;;;;;0.55;0.15;;;;;;;18.75;49.15;99709.00;10500527;28;20082;-71
2023/07/25 21:16:01;;;;;;;2.20;0.10;;;;;;;18.80;48.90;99717.31;10500757;28;20041;-71
2023/07/25 21:21:03;;;;;;;1.17;0.20;;;;;;;18.83;48.88;99722.25;10499931;28;20244;-70
2023/07/25 21:26:04;;;;;;;2.70;0.20;;;;;;;18.66;48.72;99738.53;10502776;28;20298;-69
2023/07/25 21:31:10;;;;;;;0.10;0.10;;;;;;;18.69;48.67;99739.94;10499908;28;20372;-69
2023/07/25 21:36:13;;;;;;;3.00;0.10;;;;;;;18.69;48.63;99746.19;10498982;28;20107;-70
2023/07/25 21:41:15;;;;;;;1.48;0.10;;;;;;;18.59;48.47;99744.13;10501970;28;20059;-70
2023/07/25 21:46:16;;;;;;;4.40;0.30;;;;;;;18.60;48.63;99748.50;10501030;28;20289;-69
2023/07/25 21:51:18;;;;;;;1.48;0.10;;;;;;;18.54;48.36;99751.34;10498910;28;20379;-69
2023/07/25 21:56:20;;;;;;;0.40;0.10;;;;;;;18.50;48.64;99758.34;10498511;28;20291;-70
2023/07/25 22:01:21;;;;;;;1.23;0.30;;;;;;;18.50;48.89;99756.44;10511397;28;20309;-69
2023/07/25 22:06:23;;;;;;;2.50;0.60;;;;;;;18.53;48.96;99766.06;10506169;28;20040;-70
2023/07/25 22:11:24;;;;;;;0.40;0.20;;;;;;;18.47;49.26;99756.13;10506247;28;20282;-70
2023/07/25 22:16:26;;;;;;;2.25;0.30;;;;;;;18.45;49.38;99759.09;10509188;28;20055;-70
2023/07/25 22:21:27;;;;;;;1.58;0.28;;;;;;;18.52;49.36;99764.38;10509245;28;20072;-70
2023/07/25 22:26:29;;;;;;;1.98;0.68;;;;;;;18.51;49.53;99760.03;10505805;28;20044;-69
2023/07/25 22:31:34;;;;;;;1.45;0.25;;;;;;;18.53;49.71;99768.78;10505657;28;20068;-70
2023/07/25 22:36:36;;;;;;;2.28;0.20;;;;;;;18.44;50.06;99762.88;10507815;28;20072;-71
2023/07/25 22:41:37;;;;;;;1.63;0.30;;;;;;;18.43;50.49;99778.38;10504510;28;20052;-71
2023/07/25 22:46:39;;;;;;;0.93;0.20;;;;;;;18.53;50.67;99775.03;10505660;28;20406;-70
2023/07/25 22:51:40;;;;;;;1.58;0.50;;;;;;;18.53;50.65;99776.94;10504597;28;20119;-70
2023/07/25 22:56:41;;;;;;;1.75;0.70;;;;;;;18.30;51.46;99778.66;10508389;28;20119;-70
2023/07/25 23:01:43;;;;;;;2.85;0.50;;;;;;;18.21;51.68;99778.22;10505385;28;20060;-69
2023/07/25 23:06:44;;;;;;;2.25;0.45;;;;;;;18.23;51.94;99781.53;10503629;28;20351;-69
2023/07/25 23:11:45;;;;;;;2.20;0.57;;;;;;;18.17;52.22;99787.94;10502916;28;20116;-69
2023/07/25 23:16:47;;;;;;;5.85;0.40;;;;;;;18.24;52.27;99788.59;10501828;28;20072;-71
2023/07/25 23:21:48;;;;;;;0.80;0.70;;;;;;;18.26;52.25;99788.38;10503203;28;20048;-69